Time;durP1;ratioP1;P1;durP2;ratioP2;P2;SDS_P1;SDS_P2;PMS_P1;PMS_P2;Temp;Humidity;BMP_temperature;BMP_pressure;BME280_temperature;BME280_humidity;BME280_pressure;Samples;Min_cycle;Max_cycle;Signal;HPM_P1;HPM_P2
2022/10/07 00:02:00;;;;;;;4.00;0.75;;;;;;;9.12;100.00;102532.88;6250197;28;20060;-77
2022/10/07 00:05:01;;;;;;;3.53;0.95;;;;;;;9.11;100.00;102527.66;6249836;28;20049;-77
2022/10/07 00:08:03;;;;;;;2.05;0.93;;;;;;;9.09;100.00;102526.84;6250125;28;20076;-77
2022/10/07 00:11:07;;;;;;;3.17;1.40;;;;;;;9.03;100.00;102527.78;6249963;28;20160;-77
2022/10/07 00:14:08;;;;;;;1.23;0.80;;;;;;;9.02;100.00;102526.06;6249271;28;20060;-77
2022/10/07 00:17:11;;;;;;;9.65;0.70;;;;;;;8.98;100.00;102528.78;6250337;28;20045;-77
2022/10/07 00:20:13;;;;;;;4.53;1.33;;;;;;;8.93;100.00;102520.13;6250052;28;20049;-77
2022/10/07 00:23:14;;;;;;;4.25;1.17;;;;;;;8.98;100.00;102526.16;6250369;28;20049;-77
2022/10/07 00:26:17;;;;;;;1.50;0.80;;;;;;;8.98;100.00;102519.16;6249658;28;20046;-77
2022/10/07 00:29:19;;;;;;;1.60;0.85;;;;;;;9.00;100.00;102513.91;6250112;28;20049;-77
2022/10/07 00:32:21;;;;;;;6.13;1.00;;;;;;;8.95;100.00;102506.13;6249792;28;20501;-77
2022/10/07 00:35:23;;;;;;;2.53;0.82;;;;;;;8.97;100.00;102506.94;6249027;28;20041;-77
2022/10/07 00:38:24;;;;;;;1.75;0.90;;;;;;;8.96;100.00;102504.34;6249928;28;20049;-77
2022/10/07 00:41:28;;;;;;;5.57;0.93;;;;;;;8.94;100.00;102498.25;6249780;28;20059;-77
2022/10/07 00:44:40;;;;;;;1.83;0.88;;;;;;;8.95;100.00;102495.63;6249248;28;20053;-77
2022/10/07 00:47:45;;;;;;;5.30;1.15;;;;;;;8.94;100.00;102485.16;6250028;28;20046;-77
2022/10/07 00:50:49;;;;;;;2.78;1.10;;;;;;;8.90;100.00;102494.81;6249320;28;20125;-77
2022/10/07 00:53:54;;;;;;;1.73;1.05;;;;;;;8.87;100.00;102489.66;6249509;28;20045;-77
2022/10/07 00:56:57;;;;;;;4.70;1.17;;;;;;;8.88;100.00;102475.66;6249631;28;20048;-77
2022/10/07 01:00:00;;;;;;;1.50;0.80;;;;;;;8.90;100.00;102479.09;6249651;28;20156;-77
2022/10/07 01:03:03;;;;;;;1.23;0.68;;;;;;;8.94;100.00;102480.75;6249425;28;20045;-77
2022/10/07 01:06:06;;;;;;;2.78;0.80;;;;;;;8.96;100.00;102468.50;6248909;28;20042;-77
2022/10/07 01:09:08;;;;;;;2.50;1.10;;;;;;;8.93;100.00;102465.94;6249546;28;20049;-77
2022/10/07 01:12:17;;;;;;;6.28;1.20;;;;;;;8.91;100.00;102466.88;6248730;28;20046;-77
2022/10/07 01:15:26;;;;;;;9.47;1.73;;;;;;;8.92;100.00;102461.59;6249226;28;20394;-77
2022/10/07 01:18:37;;;;;;;3.40;1.05;;;;;;;8.86;100.00;102461.72;6249584;28;20050;-77
2022/10/07 01:21:45;;;;;;;4.50;1.17;;;;;;;8.82;100.00;102460.03;6249054;28;20524;-77
2022/10/07 01:25:01;;;;;;;7.22;1.73;;;;;;;8.80;100.00;102451.31;6249691;28;20052;-77
2022/10/07 01:28:10;;;;;;;2.63;1.42;;;;;;;8.82;100.00;102449.56;6249225;28;20053;-77
2022/10/07 01:31:15;;;;;;;4.70;1.10;;;;;;;8.79;100.00;102441.72;6249049;28;20045;-77
2022/10/07 01:34:19;;;;;;;4.72;1.52;;;;;;;8.80;100.00;102438.22;6249134;28;20112;-78
2022/10/07 01:37:23;;;;;;;1.20;0.95;;;;;;;8.76;100.00;102434.78;6249599;28;20052;-77
2022/10/07 01:40:30;;;;;;;1.73;0.70;;;;;;;8.79;100.00;102429.50;6248623;28;20053;-77
2022/10/07 01:43:34;;;;;;;4.50;0.98;;;;;;;8.75;100.00;102425.19;6249659;28;20416;-77
2022/10/07 01:46:36;;;;;;;4.65;0.90;;;;;;;8.73;100.00;102418.28;6251617;28;20056;-77
2022/10/07 01:49:38;;;;;;;7.28;1.00;;;;;;;8.68;100.00;102418.34;6253910;28;20053;-77
2022/10/07 01:52:52;;;;;;;1.90;0.90;;;;;;;8.62;100.00;102421.06;6253858;28;20049;-77
2022/10/07 01:56:06;;;;;;;5.80;1.25;;;;;;;8.61;100.00;102416.72;6254499;28;20045;-77
2022/10/07 01:59:43;;;;;;;9.13;1.42;;;;;;;8.60;100.00;102415.00;6253929;28;20053;-77
2022/10/07 02:02:59;;;;;;;3.03;1.13;;;;;;;8.52;100.00;102415.13;6177326;28;20060;-77
2022/10/07 02:06:09;;;;;;;1.10;0.73;;;;;;;8.50;100.00;102408.22;6228790;28;20151;-77
2022/10/07 02:09:20;;;;;;;6.22;1.60;;;;;;;8.47;100.00;102403.00;6240277;28;20142;-77
2022/10/07 02:12:24;;;;;;;4.35;1.00;;;;;;;8.42;100.00;102410.97;6253413;28;20052;-77
2022/10/07 02:15:33;;;;;;;3.60;1.23;;;;;;;8.38;100.00;102394.41;6253321;28;20056;-77
2022/10/07 02:18:36;;;;;;;6.47;1.23;;;;;;;8.35;100.00;102394.44;6252883;28;20045;-77
2022/10/07 02:21:39;;;;;;;4.97;1.08;;;;;;;8.34;100.00;102386.63;6253037;28;20052;-77
2022/10/07 02:24:42;;;;;;;6.75;1.10;;;;;;;8.35;100.00;102385.72;6252766;28;20057;-77
2022/10/07 02:27:46;;;;;;;0.82;0.68;;;;;;;8.36;100.00;102384.84;6253584;28;20420;-77
2022/10/07 02:30:54;;;;;;;3.55;2.03;;;;;;;8.35;100.00;102372.63;6253117;28;20056;-78
2022/10/07 02:33:57;;;;;;;9.48;1.35;;;;;;;8.38;100.00;102363.00;6252586;28;20101;-77
2022/10/07 02:37:04;;;;;;;6.18;0.90;;;;;;;8.38;100.00;102369.97;6253166;28;20046;-77
2022/10/07 02:40:06;;;;;;;2.58;0.98;;;;;;;8.39;100.00;102363.84;6252130;28;20049;-77
2022/10/07 02:43:15;;;;;;;1.65;0.75;;;;;;;8.37;100.00;102371.75;6251832;28;20049;-77
2022/10/07 02:46:23;;;;;;;2.37;1.00;;;;;;;8.39;100.00;102363.84;6251660;28;20131;-77
2022/10/07 02:49:26;;;;;;;3.15;0.80;;;;;;;8.42;100.00;102357.69;6252454;28;20053;-77
2022/10/07 02:52:30;;;;;;;11.25;0.82;;;;;;;8.35;100.00;102365.63;6252165;28;20045;-77
2022/10/07 02:55:33;;;;;;;2.00;1.02;;;;;;;8.34;100.00;102356.03;6251628;28;20421;-78
2022/10/07 02:58:36;;;;;;;1.48;0.73;;;;;;;8.41;100.00;102358.59;6252261;28;20057;-77
2022/10/07 03:01:45;;;;;;;1.42;0.70;;;;;;;8.38;100.00;102359.50;6252402;28;20064;-77
2022/10/07 03:04:47;;;;;;;2.40;0.95;;;;;;;8.32;100.00;102355.22;6244922;28;20046;-77
2022/10/07 03:07:52;;;;;;;7.50;0.90;;;;;;;8.32;100.00;102356.97;6251311;28;20041;-77
2022/10/07 03:10:54;;;;;;;2.83;0.98;;;;;;;8.31;100.00;102344.75;6251871;28;20049;-77
2022/10/07 03:13:56;;;;;;;2.45;0.90;;;;;;;8.29;100.00;102347.41;6251611;28;20480;-77
2022/10/07 03:16:58;;;;;;;6.25;1.40;;;;;;;8.25;100.00;102339.63;6252149;28;20085;-76
2022/10/07 03:20:00;;;;;;;6.53;2.72;;;;;;;8.22;100.00;102348.44;6251484;28;20061;-77
2022/10/07 03:23:01;;;;;;;4.72;0.70;;;;;;;8.24;100.00;102343.16;6251786;28;20422;-77
2022/10/07 03:26:02;;;;;;;7.18;0.65;;;;;;;8.21;100.00;102343.19;6251412;28;20049;-77
2022/10/07 03:29:05;;;;;;;4.05;1.00;;;;;;;8.18;100.00;102338.88;6254770;28;20041;-77
2022/10/07 03:32:08;;;;;;;1.50;0.80;;;;;;;8.17;100.00;102328.41;6263187;28;20132;-77
2022/10/07 03:35:09;;;;;;;1.55;0.88;;;;;;;8.15;100.00;102331.06;6260931;28;20558;-78
2022/10/07 03:38:11;;;;;;;1.20;0.60;;;;;;;8.10;100.00;102320.69;6264123;28;20060;-77
2022/10/07 03:41:13;;;;;;;4.00;0.80;;;;;;;8.06;100.00;102320.78;6259324;28;20064;-77
2022/10/07 03:44:18;;;;;;;1.23;0.88;;;;;;;8.02;100.00;102319.94;6261100;28;20042;-78
2022/10/07 03:47:21;;;;;;;2.28;0.70;;;;;;;7.99;100.00;102321.75;6259575;28;20493;-76
2022/10/07 03:50:23;;;;;;;5.10;1.17;;;;;;;8.02;100.00;102311.25;6253424;28;20046;-77
2022/10/07 03:53:25;;;;;;;3.20;0.90;;;;;;;8.03;100.00;102305.97;6272952;28;20045;-77
2022/10/07 03:56:27;;;;;;;5.95;1.52;;;;;;;8.02;100.00;102309.47;6275447;28;20404;-77
2022/10/07 03:59:28;;;;;;;7.15;1.00;;;;;;;8.02;100.00;102304.25;6275138;28;20064;-76
2022/10/07 04:02:32;;;;;;;3.60;1.05;;;;;;;8.05;100.00;102296.34;6260830;28;20416;-77
2022/10/07 04:05:34;;;;;;;4.97;0.85;;;;;;;8.09;100.00;102295.41;6261357;28;20045;-77
2022/10/07 04:08:36;;;;;;;2.08;0.90;;;;;;;8.09;100.00;102291.94;6273487;28;20045;-77
2022/10/07 04:11:39;;;;;;;3.85;1.17;;;;;;;8.05;100.00;102282.41;6275342;28;20056;-77
2022/10/07 04:14:40;;;;;;;1.13;0.68;;;;;;;8.06;100.00;102286.72;6274708;28;20056;-77
2022/10/07 04:17:45;;;;;;;11.45;1.30;;;;;;;8.03;100.00;102278.91;6275287;28;20045;-77
2022/10/07 04:20:46;;;;;;;2.25;0.70;;;;;;;8.02;100.00;102279.81;6261728;28;20453;-77
2022/10/07 04:23:48;;;;;;;2.88;0.85;;;;;;;7.97;100.00;102277.28;6261617;28;20056;-77
2022/10/07 04:26:50;;;;;;;1.23;0.55;;;;;;;7.94;100.00;102277.34;6261763;28;20044;-77
2022/10/07 04:29:51;;;;;;;1.33;0.80;;;;;;;7.93;100.00;102275.63;6262251;28;20045;-77
2022/10/07 04:32:54;;;;;;;2.35;0.60;;;;;;;7.92;100.00;102273.88;6261097;28;20520;-77
2022/10/07 04:35:55;;;;;;;3.78;0.93;;;;;;;7.87;100.00;102268.75;6262791;28;20046;-77
2022/10/07 04:38:57;;;;;;;3.53;1.52;;;;;;;7.88;100.00;102267.84;6257935;28;20439;-77
2022/10/07 04:41:58;;;;;;;2.17;0.70;;;;;;;7.91;100.00;102269.56;6254543;28;20049;-77
2022/10/07 04:45:00;;;;;;;4.05;0.82;;;;;;;7.91;100.00;102260.84;6249531;28;20053;-77
2022/10/07 04:48:04;;;;;;;3.00;1.38;;;;;;;7.88;100.00;102265.22;6254555;28;20048;-77
2022/10/07 04:51:08;;;;;;;4.60;1.05;;;;;;;7.88;100.00;102266.97;6256916;28;20055;-76
2022/10/07 04:54:10;;;;;;;1.15;0.73;;;;;;;7.86;100.00;102261.78;6248822;28;20056;-77
2022/10/07 04:57:12;;;;;;;3.55;1.10;;;;;;;7.87;100.00;102266.13;6249198;28;20084;-77
2022/10/07 05:00:14;;;;;;;4.15;0.95;;;;;;;7.87;100.00;102260.03;6248636;28;20063;-77
2022/10/07 05:03:18;;;;;;;1.88;0.85;;;;;;;7.86;100.00;102266.16;6248821;28;20404;-77
2022/10/07 05:06:19;;;;;;;7.93;0.95;;;;;;;7.86;100.00;102264.41;6248792;28;20524;-77
2022/10/07 05:09:21;;;;;;;1.25;0.63;;;;;;;7.88;100.00;102261.75;6249322;28;20053;-77
2022/10/07 05:12:24;;;;;;;5.82;0.70;;;;;;;7.85;100.00;102254.78;6249023;28;20097;-77
2022/10/07 05:15:26;;;;;;;2.10;0.95;;;;;;;7.84;100.00;102266.16;6258682;28;20049;-77
2022/10/07 05:18:30;;;;;;;5.85;0.73;;;;;;;7.87;100.00;102255.66;6273150;28;20408;-77
2022/10/07 05:21:32;;;;;;;3.95;0.93;;;;;;;7.85;100.00;102262.66;6272057;28;20056;-77
2022/10/07 05:24:34;;;;;;;1.02;0.70;;;;;;;7.86;100.00;102263.53;6272104;28;20057;-77
2022/10/07 05:27:35;;;;;;;1.73;0.63;;;;;;;7.88;100.00;102260.00;6272259;28;20049;-77
2022/10/07 05:30:37;;;;;;;4.60;1.25;;;;;;;7.88;100.00;102249.50;6272118;28;20044;-77
2022/10/07 05:33:40;;;;;;;2.78;0.85;;;;;;;7.96;100.00;102252.00;6272788;28;20045;-77
2022/10/07 05:36:42;;;;;;;5.53;1.02;;;;;;;7.96;100.00;102249.38;6272749;28;20411;-77
2022/10/07 05:39:44;;;;;;;0.60;0.52;;;;;;;8.03;100.00;102234.41;6272670;28;20060;-77
2022/10/07 05:42:45;;;;;;;2.78;1.75;;;;;;;8.07;100.00;102236.09;6272425;28;20675;-77
2022/10/07 05:45:47;;;;;;;1.15;0.60;;;;;;;8.05;100.00;102240.50;6271922;28;20053;-77
2022/10/07 05:48:51;;;;;;;4.88;0.85;;;;;;;8.02;100.00;102230.94;6247828;28;20554;-77
2022/10/07 05:51:52;;;;;;;3.13;0.85;;;;;;;8.00;100.00;102229.25;6247313;28;20463;-77
2022/10/07 05:54:53;;;;;;;3.72;1.60;;;;;;;8.00;100.00;102227.50;6247827;28;20058;-77
2022/10/07 05:57:55;;;;;;;2.63;0.90;;;;;;;7.98;100.00;102221.41;6248075;28;20060;-77
2022/10/07 06:00:58;;;;;;;5.10;0.75;;;;;;;8.02;100.00;102217.00;6247789;28;20420;-77
2022/10/07 06:04:02;;;;;;;2.55;0.80;;;;;;;8.06;100.00;102224.75;6247621;28;20049;-77
2022/10/07 06:07:04;;;;;;;4.50;1.10;;;;;;;8.08;100.00;102224.72;6248195;28;20056;-77
2022/10/07 06:13:25;;;;;;;5.43;0.98;;;;;;;8.11;100.00;102212.44;6247977;28;20413;-77
2022/10/07 06:16:27;;;;;;;2.25;0.73;;;;;;;8.08;100.00;102217.75;6247626;28;20053;-77
2022/10/07 06:19:30;;;;;;;3.97;0.82;;;;;;;8.14;100.00;102209.75;6248209;28;20054;-77
2022/10/07 06:22:32;;;;;;;4.60;0.93;;;;;;;8.20;100.00;102206.16;6248191;28;20046;-77
2022/10/07 06:25:34;;;;;;;0.43;0.40;;;;;;;8.22;100.00;102201.78;6248070;28;20054;-77
2022/10/07 06:28:37;;;;;;;3.38;1.23;;;;;;;8.26;100.00;102208.63;6248160;28;20140;-77
2022/10/07 06:31:39;;;;;;;7.75;0.98;;;;;;;8.26;100.00;102213.03;6249618;28;20076;-77
2022/10/07 06:34:43;;;;;;;1.40;0.57;;;;;;;8.30;100.00;102212.06;6252031;28;20187;-77
2022/10/07 06:37:45;;;;;;;6.93;1.00;;;;;;;8.34;100.00;102205.88;6252497;28;20057;-77
2022/10/07 06:40:57;;;;;;;1.35;0.68;;;;;;;8.41;100.00;102215.38;6251918;28;20056;-77
2022/10/07 06:43:59;;;;;;;9.40;1.33;;;;;;;8.42;100.00;102217.09;6250149;28;20091;-77
2022/10/07 06:47:01;;;;;;;3.95;1.05;;;;;;;8.45;100.00;102219.66;6249260;28;20056;-77
2022/10/07 06:50:04;;;;;;;3.15;0.63;;;;;;;8.50;100.00;102212.56;6251877;28;20057;-77
2022/10/07 06:53:06;;;;;;;2.05;0.82;;;;;;;8.53;100.00;102207.25;6251677;28;20049;-77
2022/10/07 06:56:08;;;;;;;5.78;1.20;;;;;;;8.60;100.00;102208.84;6245825;28;20056;-78
2022/10/07 06:59:09;;;;;;;6.07;0.98;;;;;;;8.64;100.00;102213.13;6250699;28;20056;-78
2022/10/07 07:02:11;;;;;;;6.57;1.15;;;;;;;8.68;100.00;102218.31;6244380;28;20504;-78
2022/10/07 07:05:15;;;;;;;2.95;0.90;;;;;;;8.74;100.00;102212.94;6250390;28;20433;-78
2022/10/07 07:08:16;;;;;;;5.60;0.80;;;;;;;8.81;100.00;102215.38;6250156;28;20053;-78
2022/10/07 07:11:39;;;;;;;1.92;0.85;;;;;;;8.88;100.00;102208.22;6250558;28;20049;-77
2022/10/07 07:14:42;;;;;;;4.10;0.90;;;;;;;8.98;100.00;102212.34;6250149;28;20423;-78
2022/10/07 07:17:43;;;;;;;1.90;0.63;;;;;;;9.03;100.00;102210.50;6250649;28;20155;-78
2022/10/07 07:20:46;;;;;;;2.03;0.70;;;;;;;9.07;100.00;102206.91;6249773;28;20058;-78
2022/10/07 07:23:47;;;;;;;1.88;0.90;;;;;;;9.16;100.00;102205.81;6250684;28;20053;-78
2022/10/07 07:26:49;;;;;;;1.67;0.70;;;;;;;9.27;100.00;102208.22;6248019;28;20049;-78
2022/10/07 07:29:50;;;;;;;5.13;1.52;;;;;;;9.31;100.00;102209.81;6248477;28;20053;-79
2022/10/07 07:32:52;;;;;;;4.57;1.95;;;;;;;9.37;100.00;102207.06;6249194;28;20064;-78
2022/10/07 07:35:56;;;;;;;3.08;0.88;;;;;;;9.44;100.00;102208.63;6251004;28;20049;-78
2022/10/07 07:39:00;;;;;;;6.85;1.35;;;;;;;9.53;100.00;102204.91;6249950;28;20507;-77
2022/10/07 07:42:01;;;;;;;2.30;1.10;;;;;;;9.63;100.00;102198.53;6250396;28;20052;-77
2022/10/07 07:45:03;;;;;;;3.13;1.25;;;;;;;9.72;100.00;102198.31;6244270;28;20045;-78
2022/10/07 07:48:05;;;;;;;4.85;0.80;;;;;;;9.83;100.00;102198.00;6249733;28;20557;-77
2022/10/07 07:51:08;;;;;;;5.93;1.45;;;;;;;9.91;100.00;102199.53;6249275;28;20045;-78
2022/10/07 07:54:11;;;;;;;0.93;0.73;;;;;;;9.95;100.00;102195.06;6248872;28;20433;-78
2022/10/07 07:57:12;;;;;;;1.33;0.90;;;;;;;10.03;100.00;102200.06;6249321;28;20413;-77
2022/10/07 08:00:15;;;;;;;6.15;1.02;;;;;;;10.13;100.00;102185.81;6249034;28;20049;-77
2022/10/07 08:03:16;;;;;;;4.57;0.90;;;;;;;10.24;100.00;102196.00;6249173;28;20421;-77
2022/10/07 08:06:20;;;;;;;5.47;2.13;;;;;;;10.33;100.00;102182.63;6248972;28;20061;-77
2022/10/07 08:09:22;;;;;;;2.60;0.70;;;;;;;10.47;100.00;102188.34;6250612;28;20049;-77
2022/10/07 08:12:24;;;;;;;1.95;0.68;;;;;;;10.59;100.00;102190.59;6258858;28;20126;-77
2022/10/07 08:15:25;;;;;;;5.85;0.70;;;;;;;10.70;100.00;102187.63;6249837;28;20060;-78
2022/10/07 08:18:27;;;;;;;5.97;0.90;;;;;;;10.75;100.00;102190.13;6249571;28;20412;-77
2022/10/07 08:21:31;;;;;;;1.98;0.90;;;;;;;10.84;100.00;102182.81;6249961;28;20045;-78
2022/10/07 08:24:33;;;;;;;2.10;0.82;;;;;;;10.88;100.00;102181.81;6249824;28;20076;-78
2022/10/07 08:27:34;;;;;;;2.97;1.20;;;;;;;11.00;100.00;102177.94;6249893;28;20056;-77
2022/10/07 08:30:35;;;;;;;5.38;0.80;;;;;;;11.04;100.00;102173.44;6249124;28;20492;-78
2022/10/07 08:33:39;;;;;;;2.30;0.70;;;;;;;11.09;100.00;102176.78;6252032;28;20053;-78
2022/10/07 08:36:46;;;;;;;4.57;1.00;;;;;;;11.18;100.00;102165.94;6250021;28;20118;-78
2022/10/07 08:39:47;;;;;;;4.18;0.85;;;;;;;11.27;100.00;102165.66;6250446;28;20053;-77
2022/10/07 08:42:49;;;;;;;8.07;1.48;;;;;;;11.37;100.00;102158.28;6251287;28;20054;-77
2022/10/07 08:45:54;;;;;;;2.70;0.95;;;;;;;11.46;100.00;102150.09;6250657;28;20046;-77
2022/10/07 08:49:02;;;;;;;2.60;0.80;;;;;;;11.56;100.00;102142.72;6250950;28;20049;-77
2022/10/07 08:52:19;;;;;;;4.72;0.93;;;;;;;11.75;98.03;102140.28;6251009;28;20563;-78
2022/10/07 08:55:30;;;;;;;1.55;0.70;;;;;;;11.89;96.99;102144.16;6249877;28;20053;-78
2022/10/07 08:58:46;;;;;;;1.55;0.77;;;;;;;12.01;96.69;102134.13;6250738;28;20057;-78
2022/10/07 09:02:03;;;;;;;4.30;0.82;;;;;;;12.03;96.31;102134.91;6251367;28;20432;-77
2022/10/07 09:05:19;;;;;;;2.55;0.80;;;;;;;12.10;96.26;102136.41;6250750;28;20045;-79
2022/10/07 09:08:27;;;;;;;7.60;0.95;;;;;;;12.09;96.52;102134.69;6250920;28;20045;-78
2022/10/07 09:11:30;;;;;;;4.85;0.98;;;;;;;12.13;96.44;102126.63;6251823;28;20156;-78
2022/10/07 09:14:37;;;;;;;7.50;0.88;;;;;;;12.22;95.82;102128.06;6250772;28;20513;-78
2022/10/07 09:17:47;;;;;;;2.35;0.65;;;;;;;12.33;96.03;102122.34;6250428;28;20045;-78
2022/10/07 09:20:52;;;;;;;4.55;1.13;;;;;;;12.38;94.73;102115.13;6249541;28;20073;-78
2022/10/07 09:24:01;;;;;;;4.10;0.55;;;;;;;12.42;94.12;102111.44;6249748;28;20452;-79
2022/10/07 09:27:12;;;;;;;3.92;1.00;;;;;;;12.47;93.06;102106.84;6250062;28;20053;-77
2022/10/07 09:30:13;;;;;;;5.82;1.20;;;;;;;12.62;92.73;102111.50;6247585;28;20045;-78
2022/10/07 09:33:18;;;;;;;2.72;0.80;;;;;;;12.60;93.34;102100.19;6249553;28;20057;-78
2022/10/07 09:36:20;;;;;;;2.72;0.98;;;;;;;12.60;93.73;102100.19;6248134;28;20057;-79
2022/10/07 09:39:25;;;;;;;5.97;0.85;;;;;;;12.68;93.31;102098.09;6248552;28;20053;-79
2022/10/07 09:42:33;;;;;;;3.60;0.65;;;;;;;12.80;90.79;102085.31;6248354;28;20053;-78
2022/10/07 09:45:36;;;;;;;4.15;1.23;;;;;;;12.84;92.66;102084.25;6248433;28;20054;-77
2022/10/07 09:48:51;;;;;;;4.50;0.80;;;;;;;12.88;93.77;102085.84;6250046;28;20049;-78
2022/10/07 09:51:59;;;;;;;5.15;0.93;;;;;;;12.98;92.28;102075.78;6249028;28;20073;-77
2022/10/07 09:55:30;;;;;;;4.28;0.80;;;;;;;13.10;92.54;102077.91;6248876;28;20053;-79
2022/10/07 09:58:32;;;;;;;4.07;0.85;;;;;;;13.17;92.51;102071.41;6249269;28;20516;-77
2022/10/07 10:01:33;;;;;;;4.03;0.90;;;;;;;13.38;88.70;102078.44;6248560;28;20049;-76
2022/10/07 10:04:37;;;;;;;6.57;0.85;;;;;;;13.60;87.26;102074.88;6247959;28;20054;-78
2022/10/07 10:07:39;;;;;;;4.22;0.60;;;;;;;13.59;88.17;102076.66;6250860;28;20049;-78
2022/10/07 10:10:50;;;;;;;4.35;0.80;;;;;;;13.63;86.57;102070.31;6252244;28;20053;-78
2022/10/07 10:13:51;;;;;;;2.97;1.02;;;;;;;13.69;87.73;102075.31;6254232;28;20049;-78
2022/10/07 10:16:53;;;;;;;1.30;0.65;;;;;;;13.89;83.40;102082.31;6252334;28;20056;-77
2022/10/07 10:19:55;;;;;;;0.93;0.52;;;;;;;13.95;82.47;102066.22;6251715;28;20046;-77
2022/10/07 10:22:57;;;;;;;7.53;0.73;;;;;;;13.98;82.52;102059.03;6252401;28;20437;-77
2022/10/07 10:26:26;;;;;;;5.65;1.58;;;;;;;13.99;84.64;102060.75;6252970;28;20052;-78
2022/10/07 10:29:45;;;;;;;6.28;0.90;;;;;;;14.16;82.35;102060.81;6252857;28;20136;-78
2022/10/07 10:33:13;;;;;;;5.20;0.70;;;;;;;14.24;81.01;102049.91;6253338;28;20049;-78
2022/10/07 10:36:19;;;;;;;2.47;0.63;;;;;;;14.18;82.78;102038.69;6247421;28;20056;-79
2022/10/07 10:39:31;;;;;;;1.27;0.55;;;;;;;14.19;83.64;102035.09;6252581;28;20057;-79
2022/10/07 10:42:44;;;;;;;5.18;1.80;;;;;;;14.28;82.96;102035.59;6253287;28;20060;-78
2022/10/07 10:45:57;;;;;;;2.42;0.77;;;;;;;14.39;81.35;102035.91;6251861;28;20428;-76
2022/10/07 10:49:09;;;;;;;4.35;0.95;;;;;;;14.38;81.59;102023.63;6252611;28;20045;-78
2022/10/07 10:52:29;;;;;;;3.33;1.45;;;;;;;14.55;81.03;102014.91;6250774;28;20053;-77
2022/10/07 10:55:56;;;;;;;6.03;0.88;;;;;;;14.55;80.51;102006.97;6252555;28;20071;-77
2022/10/07 10:59:15;;;;;;;5.13;1.00;;;;;;;14.69;78.65;101999.19;6251272;28;20128;-78
2022/10/07 11:02:40;;;;;;;1.92;0.52;;;;;;;14.85;77.63;101996.63;6251337;28;20056;-78
2022/10/07 11:05:43;;;;;;;5.45;0.93;;;;;;;14.86;78.70;101985.97;6251212;28;20050;-77
2022/10/07 11:08:46;;;;;;;1.85;0.47;;;;;;;14.97;77.49;101982.75;6250732;28;20563;-78
2022/10/07 11:11:48;;;;;;;2.50;0.90;;;;;;;15.07;77.81;101976.03;6250788;28;20053;-79
2022/10/07 11:14:56;;;;;;;3.40;0.70;;;;;;;15.17;76.73;101995.81;6250610;28;20057;-78
2022/10/07 11:18:03;;;;;;;6.03;1.25;;;;;;;15.15;77.75;101965.91;6251029;28;20053;-78
2022/10/07 11:21:11;;;;;;;3.67;0.90;;;;;;;15.34;77.53;101967.56;6273678;28;20096;-77
2022/10/07 11:24:17;;;;;;;12.27;0.95;;;;;;;15.55;75.81;101955.81;6276762;28;20076;-80
2022/10/07 11:27:24;;;;;;;1.70;0.57;;;;;;;15.56;74.48;101954.88;6261417;28;20052;-77
2022/10/07 11:30:35;;;;;;;5.25;0.75;;;;;;;15.56;75.33;101946.91;6259353;28;20482;-78
2022/10/07 11:33:45;;;;;;;4.82;1.05;;;;;;;15.66;73.83;101931.41;6251014;28;20049;-77
2022/10/07 11:36:54;;;;;;;5.15;0.55;;;;;;;15.86;73.91;101935.59;6249811;28;20535;-77
2022/10/07 11:39:56;;;;;;;4.93;0.90;;;;;;;15.96;71.23;101937.63;6249980;28;20052;-77
2022/10/07 11:43:05;;;;;;;6.28;0.98;;;;;;;16.03;71.82;101930.16;6250317;28;20053;-78
2022/10/07 11:46:14;;;;;;;4.20;1.05;;;;;;;16.17;71.63;101919.66;6249341;28;20045;-77
2022/10/07 11:49:23;;;;;;;3.28;0.90;;;;;;;16.15;72.58;101908.25;6249449;28;20456;-78
2022/10/07 11:52:28;;;;;;;4.63;0.80;;;;;;;16.15;71.51;101915.34;6250394;28;20176;-78
2022/10/07 11:55:35;;;;;;;2.25;0.60;;;;;;;16.31;69.89;101910.03;6249155;28;20060;-77
2022/10/07 11:58:38;;;;;;;7.55;0.77;;;;;;;16.36;70.37;101907.94;6249932;28;20547;-78
2022/10/07 12:01:50;;;;;;;10.25;1.95;;;;;;;16.54;68.16;101898.03;6249054;28;20049;-78
2022/10/07 12:04:52;;;;;;;5.10;1.08;;;;;;;16.60;69.30;101892.34;6249977;28;20054;-77
2022/10/07 12:07:59;;;;;;;4.68;0.90;;;;;;;16.51;68.58;101877.84;6248816;28;20071;-77
2022/10/07 12:11:39;;;;;;;6.57;1.83;;;;;;;16.48;69.34;101867.41;6248310;28;20061;-77
2022/10/07 12:14:42;;;;;;;3.63;0.98;;;;;;;16.37;70.34;101865.41;6248281;28;20425;-78
2022/10/07 12:17:54;;;;;;;2.38;0.70;;;;;;;16.38;69.99;101850.34;6249055;28;20052;-78
2022/10/07 12:21:08;;;;;;;2.00;0.88;;;;;;;16.67;69.01;101851.25;6248569;28;20049;-77
2022/10/07 12:24:14;;;;;;;4.82;0.50;;;;;;;16.82;68.40;101852.13;6248326;28;20045;-76
2022/10/07 12:27:17;;;;;;;2.05;0.77;;;;;;;17.01;68.64;101843.84;6248096;28;20513;-77
2022/10/07 12:30:38;;;;;;;2.47;0.93;;;;;;;17.13;67.52;101838.63;6247254;28;20045;-77
2022/10/07 12:33:56;;;;;;;3.67;0.80;;;;;;;17.38;68.25;101837.91;6249050;28;20053;-77
2022/10/07 12:37:31;;;;;;;7.33;0.90;;;;;;;17.62;66.46;101827.50;6248955;28;20049;-76
2022/10/07 12:40:35;;;;;;;5.10;0.82;;;;;;;17.86;63.23;101827.69;6248577;28;20053;-78
2022/10/07 12:43:47;;;;;;;4.15;0.65;;;;;;;17.84;61.34;101821.63;6248902;28;20517;-77
2022/10/07 12:46:52;;;;;;;2.72;0.63;;;;;;;17.64;64.42;101828.22;6249612;28;20049;-78
2022/10/07 12:49:58;;;;;;;5.93;0.80;;;;;;;17.56;62.86;101814.59;6249090;28;20049;-79
2022/10/07 12:53:02;;;;;;;4.13;0.63;;;;;;;17.48;61.94;101815.09;6248768;28;20052;-77
2022/10/07 12:56:05;;;;;;;2.20;1.27;;;;;;;17.52;62.24;101801.59;6248354;28;20049;-77
2022/10/07 13:03:10;;;;;;;1.70;0.75;;;;;;;17.99;63.48;101793.16;6249286;28;20428;-78
2022/10/07 13:06:48;;;;;;;1.60;0.63;;;;;;;18.29;61.53;101794.66;6248189;28;20053;-78
2022/10/07 13:10:23;;;;;;;5.13;0.88;;;;;;;18.19;63.38;101791.78;6243174;28;20034;-78
2022/10/07 13:13:30;;;;;;;1.05;0.40;;;;;;;18.23;59.92;101791.47;6246797;28;20056;-76
2022/10/07 13:16:39;;;;;;;4.45;1.25;;;;;;;18.20;58.88;101789.00;6247470;28;20045;-77
2022/10/07 13:19:51;;;;;;;3.15;1.55;;;;;;;18.18;59.58;101782.97;6223472;28;20041;-77
2022/10/07 13:22:54;;;;;;;4.85;0.80;;;;;;;18.18;61.71;101774.97;6237279;28;20041;-78
2022/10/07 13:25:59;;;;;;;6.47;1.00;;;;;;;18.21;59.21;101763.25;6248072;28;20056;-77
2022/10/07 13:29:01;;;;;;;3.55;0.65;;;;;;;18.28;58.79;101764.53;6247439;28;20413;-75
2022/10/07 13:32:05;;;;;;;1.35;0.55;;;;;;;18.05;60.65;101751.97;6247822;28;20049;-77
2022/10/07 13:35:29;;;;;;;2.50;0.85;;;;;;;18.10;61.42;101747.19;6247298;28;20049;-78
2022/10/07 13:38:32;;;;;;;5.60;0.98;;;;;;;18.28;59.60;101753.91;6249114;28;20081;-78
2022/10/07 13:41:34;;;;;;;3.03;0.77;;;;;;;18.50;59.27;101745.25;6266524;28;20702;-77
2022/10/07 13:44:38;;;;;;;4.30;1.55;;;;;;;18.64;58.21;101744.28;6276001;28;20420;-77
2022/10/07 13:47:43;;;;;;;4.60;0.80;;;;;;;18.59;58.74;101739.28;6268770;28;20550;-77
2022/10/07 13:50:45;;;;;;;3.22;0.77;;;;;;;18.63;60.00;101735.44;6273592;28;20049;-77
2022/10/07 13:53:54;;;;;;;4.22;0.68;;;;;;;18.52;59.87;101727.34;6276990;28;20077;-77
2022/10/07 13:56:56;;;;;;;;;;;;;;;18.47;59.67;101729.50;6277188;28;20059;-76
2022/10/07 13:59:58;;;;;;;4.35;0.70;;;;;;;18.41;58.51;101720.16;6276095;28;19936;-77
2022/10/07 14:03:00;;;;;;;3.58;1.10;;;;;;;18.36;58.25;101718.78;6270083;28;20416;-77
2022/10/07 14:06:02;;;;;;;5.88;0.93;;;;;;;18.40;59.21;101712.28;6276757;28;20098;-77
2022/10/07 14:09:16;;;;;;;3.53;0.60;;;;;;;18.51;56.84;101712.34;6276508;28;20122;-77
2022/10/07 14:12:21;;;;;;;4.05;0.70;;;;;;;18.15;58.35;101700.69;6270875;28;20504;-76
2022/10/07 14:15:25;;;;;;;4.72;0.65;;;;;;;17.95;58.98;101699.41;6258049;28;20493;-77
2022/10/07 14:18:30;;;;;;;2.97;0.70;;;;;;;17.90;58.88;101695.38;6276106;28;20045;-76
2022/10/07 14:21:40;;;;;;;1.17;0.57;;;;;;;17.84;61.16;101688.66;6257473;28;20060;-77
2022/10/07 14:24:50;;;;;;;;;;;;;;;17.68;63.23;101680.00;6252271;28;20056;-77
2022/10/07 14:27:54;;;;;;;3.85;0.57;;;;;;;17.64;62.30;101676.72;6251428;28;20308;-77
2022/10/07 14:38:21;;;;;;;4.38;1.02;;;;;;;17.44;63.27;101664.78;6250604;28;20050;-77